createdAt,value
2018-03-26T00:02:21.568Z,6.20
2018-03-26T00:04:49.205Z,6.20
2018-03-26T00:07:16.894Z,6.20
2018-03-26T00:09:44.522Z,6.20
2018-03-26T00:12:12.121Z,6.20
2018-03-26T00:14:39.708Z,6.20
2018-03-26T00:17:08.074Z,6.20
2018-03-26T00:19:35.689Z,6.20
2018-03-26T00:22:03.318Z,6.20
2018-03-26T00:24:31.851Z,6.20
2018-03-26T00:26:59.514Z,6.20
2018-03-26T00:29:27.155Z,6.20
2018-03-26T00:31:54.756Z,6.20
2018-03-26T00:34:22.356Z,6.10
2018-03-26T00:36:50.846Z,6.10
2018-03-26T00:39:18.435Z,6.10
2018-03-26T00:41:46.065Z,6.10
2018-03-26T00:44:13.671Z,6.20
2018-03-26T00:46:41.385Z,6.20
2018-03-26T00:49:09.872Z,6.10
2018-03-26T00:51:37.471Z,6.10
2018-03-26T00:54:05.081Z,6.10
2018-03-26T00:56:33.438Z,6.10
2018-03-26T00:59:01.119Z,6.10
2018-03-26T01:01:28.806Z,6.10
2018-03-26T01:03:56.443Z,6.10
2018-03-26T01:06:24.037Z,6.10
2018-03-26T01:08:51.716Z,6.10
2018-03-26T01:11:19.329Z,6.10
2018-03-26T01:13:47.020Z,6.10
2018-03-26T01:16:14.757Z,6.20
2018-03-26T01:18:42.415Z,6.20
2018-03-26T01:21:10.035Z,6.20
2018-03-26T01:23:37.675Z,6.20
2018-03-26T01:26:05.423Z,6.20
2018-03-26T01:28:33.911Z,6.20
2018-03-26T01:31:02.294Z,6.10
2018-03-26T01:33:30.734Z,6.10
2018-03-26T01:35:58.342Z,6.10
2018-03-26T01:38:26.003Z,6.10
2018-03-26T01:40:53.696Z,6.00
2018-03-26T01:43:21.295Z,6.00
2018-03-26T01:45:48.897Z,6.10
2018-03-26T01:48:16.541Z,6.10
2018-03-26T01:50:44.939Z,6.10
2018-03-26T01:53:12.637Z,6.10
2018-03-26T01:55:40.240Z,6.10
2018-03-26T01:58:08.628Z,6.10
2018-03-26T02:00:36.983Z,6.10
2018-03-26T02:03:04.585Z,6.10
2018-03-26T02:05:32.172Z,6.20
2018-03-26T02:07:59.764Z,6.10
2018-03-26T02:10:28.150Z,6.20
2018-03-26T02:12:56.525Z,6.10
2018-03-26T02:15:24.163Z,6.10
2018-03-26T02:17:51.745Z,6.10
2018-03-26T02:20:19.329Z,6.10
2018-03-26T02:22:46.946Z,6.10
2018-03-26T02:25:14.570Z,6.10
2018-03-26T02:27:42.969Z,6.00
2018-03-26T02:30:10.569Z,6.00
2018-03-26T02:32:38.168Z,6.10
2018-03-26T02:35:06.526Z,6.10
2018-03-26T02:37:34.119Z,6.10
2018-03-26T02:40:01.713Z,6.10
2018-03-26T02:42:29.329Z,6.10
2018-03-26T02:44:57.690Z,6.10
2018-03-26T02:47:25.287Z,6.00
2018-03-26T02:49:52.875Z,6.00
2018-03-26T02:52:20.470Z,6.00
2018-03-26T02:54:48.071Z,6.00
2018-03-26T02:57:15.711Z,6.00
2018-03-26T02:59:43.306Z,6.00
2018-03-26T03:02:10.925Z,6.00
2018-03-26T03:04:38.527Z,6.00
2018-03-26T03:07:06.142Z,6.00
2018-03-26T03:09:33.747Z,6.00
2018-03-26T03:12:01.360Z,5.90
2018-03-26T03:14:28.962Z,5.90
2018-03-26T03:16:57.325Z,5.90
2018-03-26T03:19:25.696Z,5.90
2018-03-26T03:21:53.318Z,5.90
2018-03-26T03:24:20.899Z,5.90
2018-03-26T03:26:48.498Z,5.90
2018-03-26T03:29:16.872Z,5.90
2018-03-26T03:31:45.230Z,5.80
2018-03-26T03:34:12.819Z,5.80
2018-03-26T03:36:41.173Z,5.90
2018-03-26T03:39:08.783Z,5.80
2018-03-26T03:41:36.409Z,5.80
2018-03-26T03:44:04.016Z,5.90
2018-03-26T03:46:31.615Z,5.80
2018-03-26T03:48:59.212Z,5.80
2018-03-26T03:51:26.844Z,5.80
2018-03-26T03:53:54.426Z,5.80
2018-03-26T03:56:22.784Z,5.80
2018-03-26T03:58:50.357Z,5.80
2018-03-26T04:01:18.719Z,5.80
2018-03-26T04:03:46.342Z,5.80
2018-03-26T04:06:13.940Z,5.80
2018-03-26T04:08:41.558Z,5.80
2018-03-26T04:11:09.154Z,5.80
2018-03-26T04:13:36.760Z,5.80
2018-03-26T04:16:04.362Z,5.80
2018-03-26T04:18:31.943Z,5.80
2018-03-26T04:20:59.530Z,5.70
2018-03-26T04:23:27.109Z,5.70
2018-03-26T04:25:55.474Z,5.70
2018-03-26T04:28:23.067Z,5.70
2018-03-26T04:30:50.678Z,5.70
2018-03-26T04:33:18.262Z,5.70
2018-03-26T04:35:46.634Z,5.60
2018-03-26T04:38:14.254Z,5.60
2018-03-26T04:40:41.854Z,5.60
2018-03-26T04:43:09.445Z,5.50
2018-03-26T04:45:37.050Z,5.50
2018-03-26T04:48:04.634Z,5.50
2018-03-26T04:50:32.222Z,5.50
2018-03-26T04:53:00.571Z,5.40
2018-03-26T04:55:28.197Z,5.40
2018-03-26T04:57:55.781Z,5.40
2018-03-26T05:00:23.404Z,5.40
2018-03-26T05:02:51.002Z,5.40
2018-03-26T05:05:18.654Z,5.40
2018-03-26T05:07:46.230Z,5.40
2018-03-26T05:10:13.824Z,5.40
2018-03-26T05:12:42.216Z,5.40
2018-03-26T05:15:10.568Z,5.40
2018-03-26T05:17:38.149Z,5.40
2018-03-26T05:20:06.503Z,5.40
2018-03-26T05:22:34.120Z,5.40
2018-03-26T05:25:01.707Z,5.40
2018-03-26T05:27:29.285Z,5.40
2018-03-26T05:29:56.870Z,5.40
2018-03-26T05:32:25.225Z,5.40
2018-03-26T05:34:52.825Z,5.40
2018-03-26T05:37:20.404Z,5.40
2018-03-26T05:39:48.003Z,5.40
2018-03-26T05:42:15.620Z,5.30
2018-03-26T05:44:43.210Z,5.30
2018-03-26T05:47:10.823Z,5.40
2018-03-26T05:49:39.171Z,5.40
2018-03-26T05:52:06.789Z,5.40
2018-03-26T05:54:34.374Z,5.30
2018-03-26T05:57:01.962Z,5.30
2018-03-26T05:59:29.585Z,5.30
2018-03-26T06:01:57.178Z,5.40
2018-03-26T06:04:24.768Z,5.40
2018-03-26T06:06:53.121Z,5.50
2018-03-26T06:09:22.222Z,5.50
2018-03-26T06:11:49.846Z,5.50
2018-03-26T06:14:17.423Z,5.50
2018-03-26T06:16:56.780Z,5.60
2018-03-26T06:19:24.378Z,5.70
2018-03-26T06:21:52.773Z,5.70
2018-03-26T06:24:20.356Z,5.70
2018-03-26T06:26:47.958Z,5.80
2018-03-26T06:29:15.564Z,5.80
2018-03-26T06:31:43.162Z,6.00
2018-03-26T06:34:10.765Z,6.10
2018-03-26T06:50:04.970Z,6.70
2018-03-26T06:52:32.590Z,6.80
2018-03-26T06:55:00.174Z,6.80
2018-03-26T06:57:27.795Z,6.60
2018-03-26T06:59:55.390Z,6.50
2018-03-26T07:02:23.800Z,6.70
2018-03-26T07:04:52.186Z,7.10
2018-03-26T07:07:21.297Z,7.10
2018-03-26T07:09:50.894Z,7.40
2018-03-26T07:12:19.083Z,7.40
2018-03-26T07:14:48.877Z,7.60
2018-03-26T07:17:32.621Z,7.50
2018-03-26T07:20:01.615Z,8.10
2018-03-26T07:22:34.131Z,8.80
2018-03-26T07:25:02.171Z,10.20
2018-03-26T07:27:30.663Z,11.60
2018-03-26T07:30:04.012Z,11.20
2018-03-26T07:32:36.092Z,10.10
2018-03-26T07:35:06.567Z,10.80
2018-03-26T07:37:35.044Z,10.80
2018-03-26T07:40:02.867Z,11.10
2018-03-26T07:42:30.490Z,11.20
2018-03-26T07:44:58.085Z,12.40
2018-03-26T07:47:27.114Z,11.10
2018-03-26T07:50:00.313Z,11.10
2018-03-26T07:52:28.992Z,10.30
2018-03-26T07:54:58.367Z,10.30
2018-03-26T07:57:26.974Z,10.30
2018-03-26T07:59:55.646Z,10.10
2018-03-26T08:02:23.530Z,9.70
2018-03-26T08:04:52.013Z,9.10
2018-03-26T08:07:20.085Z,9.00
2018-03-26T08:09:48.450Z,8.70
2018-03-26T08:12:16.540Z,8.50
2018-03-26T08:14:46.054Z,8.90
2018-03-26T08:17:15.959Z,8.60
2018-03-26T08:19:46.063Z,8.50
2018-03-26T08:22:14.251Z,8.60
2018-03-26T08:24:43.319Z,9.20
2018-03-26T08:27:12.040Z,9.60
2018-03-26T08:29:40.113Z,9.50
2018-03-26T08:32:08.391Z,9.20
2018-03-26T08:34:36.275Z,9.10
2018-03-26T08:37:04.281Z,9.00
2018-03-26T08:39:38.926Z,8.50
2018-03-26T08:42:14.199Z,8.20
2018-03-26T08:44:49.740Z,7.80
2018-03-26T08:47:19.160Z,7.60
2018-03-26T08:49:49.532Z,7.60
2018-03-26T08:52:17.554Z,7.60
2018-03-26T08:54:49.035Z,7.10
2018-03-26T08:57:17.282Z,8.20
2018-03-26T08:59:45.454Z,9.10
2018-03-26T09:02:15.028Z,9.90
2018-03-26T09:04:50.795Z,10.60
2018-03-26T09:07:25.125Z,10.60
2018-03-26T09:09:54.745Z,10.40
2018-03-26T09:12:28.851Z,10.80
2018-03-26T09:14:56.510Z,10.90
2018-03-26T09:17:24.902Z,11.40
2018-03-26T09:19:55.743Z,10.50
2018-03-26T09:24:57.404Z,10.20
2018-03-26T09:27:25.051Z,11.20
2018-03-26T09:29:53.445Z,11.30
2018-03-26T09:32:21.191Z,11.30
2018-03-26T09:34:57.573Z,10.00
2018-03-26T09:37:25.534Z,10.00
2018-03-26T09:39:53.988Z,11.30
2018-03-26T09:42:21.603Z,11.30
2018-03-26T09:44:49.253Z,12.10
2018-03-26T09:47:16.869Z,11.80
2018-03-26T09:49:44.742Z,11.00
2018-03-26T09:52:12.365Z,10.90
2018-03-26T09:54:40.935Z,10.80
2018-03-26T09:57:12.598Z,9.50
2018-03-26T09:59:40.897Z,9.50
2018-03-26T10:02:11.818Z,9.70
2018-03-26T10:04:40.237Z,9.80
2018-03-26T10:07:08.005Z,10.30
2018-03-26T10:09:36.302Z,10.80
2018-03-26T10:12:05.401Z,10.40
2018-03-26T10:14:34.926Z,10.40
2018-03-26T10:17:03.632Z,10.40
2018-03-26T10:19:32.011Z,10.00
2018-03-26T10:22:01.022Z,10.40
2018-03-26T10:24:29.901Z,10.10
2018-03-26T10:26:58.176Z,9.60
2018-03-26T10:29:28.200Z,9.50
2018-03-26T10:31:57.762Z,9.80
2018-03-26T10:34:25.844Z,9.90
2018-03-26T10:36:54.950Z,9.50
2018-03-26T10:39:24.172Z,9.00
2018-03-26T10:41:52.654Z,9.00
2018-03-26T10:44:20.942Z,9.10
2018-03-26T10:46:50.326Z,9.40
2018-03-26T10:49:18.591Z,9.50
2018-03-26T10:51:51.295Z,9.00
2018-03-26T10:54:19.675Z,9.70
2018-03-26T11:10:12.047Z,9.10
2018-03-26T11:12:40.290Z,9.20
2018-03-26T11:15:09.528Z,8.90
2018-03-26T11:17:42.782Z,9.50
2018-03-26T11:20:11.010Z,9.60
2018-03-26T11:22:39.018Z,9.40
2018-03-26T11:25:07.106Z,9.20
2018-03-26T11:27:35.175Z,9.20
2018-03-26T11:30:03.556Z,9.00
2018-03-26T11:32:32.984Z,9.00
2018-03-26T11:35:01.244Z,9.20
2018-03-26T11:37:30.269Z,9.30
2018-03-26T11:39:58.309Z,9.20
2018-03-26T11:42:39.648Z,9.00
2018-03-26T11:45:08.553Z,8.90
2018-03-26T11:47:37.526Z,8.80
2018-03-26T11:50:06.051Z,8.80
2018-03-26T11:52:34.445Z,8.60
2018-03-26T11:55:02.720Z,8.50
2018-03-26T11:57:30.792Z,8.20
2018-03-26T12:02:51.762Z,8.10
2018-03-26T12:05:23.841Z,8.20
2018-03-26T12:08:03.602Z,8.00
2018-03-26T12:10:35.373Z,7.80
2018-03-26T12:13:04.545Z,7.80
2018-03-26T12:15:36.964Z,7.50
2018-03-26T12:18:06.342Z,7.50
2018-03-26T12:20:45.705Z,7.30
2018-03-26T12:23:25.392Z,7.40
2018-03-26T12:25:52.985Z,7.20
2018-03-26T12:28:32.598Z,6.90
2018-03-26T12:31:00.274Z,7.00
2018-03-26T12:33:51.278Z,7.20
2018-03-26T12:36:18.873Z,7.20
2018-03-26T12:38:46.478Z,6.90
2018-03-26T12:41:14.323Z,6.90
2018-03-26T12:43:42.397Z,7.00
2018-03-26T12:46:22.329Z,7.30
2018-03-26T12:48:52.058Z,7.10
2018-03-26T12:51:38.824Z,7.20
2018-03-26T12:54:07.187Z,6.70
2018-03-26T12:56:34.800Z,6.70
2018-03-26T12:59:02.405Z,6.90
2018-03-26T13:01:41.993Z,6.80
2018-03-26T13:04:09.679Z,6.50
2018-03-26T13:06:37.279Z,6.40
2018-03-26T13:09:04.869Z,6.50
2018-03-26T13:11:32.482Z,6.30
2018-03-26T13:14:00.308Z,6.50
2018-03-26T13:16:27.956Z,6.80
2018-03-26T13:18:56.546Z,6.90
2018-03-26T13:21:24.203Z,6.80
2018-03-26T13:23:52.574Z,7.10
2018-03-26T13:26:20.904Z,7.10
2018-03-26T13:28:49.700Z,7.10
2018-03-26T13:31:22.373Z,7.10
2018-03-26T13:33:58.570Z,7.20
2018-03-26T13:36:31.631Z,7.30
2018-03-26T13:39:00.067Z,7.20
2018-03-26T13:41:28.587Z,7.00
2018-03-26T13:43:56.193Z,7.00
2018-03-26T13:46:24.229Z,7.10
2018-03-26T13:48:56.801Z,7.00
2018-03-26T13:51:24.577Z,7.10
2018-03-26T13:53:53.255Z,7.00
2018-03-26T13:56:21.426Z,7.30
2018-03-26T13:58:49.183Z,7.30
2018-03-26T14:01:17.267Z,7.10
2018-03-26T14:03:48.971Z,7.20
2018-03-26T14:06:19.222Z,7.40
2018-03-26T14:09:07.088Z,7.30
2018-03-26T14:14:34.476Z,7.60
2018-03-26T14:17:23.972Z,7.60
2018-03-26T14:19:53.371Z,7.60
2018-03-26T14:22:30.324Z,7.20
2018-03-26T14:25:09.158Z,7.50
2018-03-26T14:27:46.650Z,7.60
2018-03-26T14:30:18.889Z,7.50
2018-03-26T14:32:46.757Z,7.50
2018-03-26T14:48:51.918Z,6.90
2018-03-26T14:51:19.614Z,6.90
2018-03-26T14:53:48.837Z,6.90
2018-03-26T14:56:17.250Z,6.90
2018-03-26T14:58:45.517Z,6.80
2018-03-26T15:01:13.113Z,6.90
2018-03-26T15:03:40.750Z,6.50
2018-03-26T15:06:08.381Z,6.60
2018-03-26T15:08:37.530Z,6.30
2018-03-26T15:11:05.209Z,6.30
2018-03-26T15:13:32.809Z,6.50
2018-03-26T15:16:01.170Z,6.50
2018-03-26T15:18:28.777Z,6.40
2018-03-26T15:20:56.360Z,6.40
2018-03-26T15:23:24.001Z,6.30
2018-03-26T15:25:51.639Z,6.10
2018-03-26T15:28:20.001Z,6.20
2018-03-26T15:30:47.579Z,6.20
2018-03-26T15:33:15.931Z,6.40
2018-03-26T15:35:43.539Z,6.40
2018-03-26T15:38:11.163Z,6.40
2018-03-26T15:40:38.758Z,6.20
2018-03-26T15:43:07.111Z,6.10
2018-03-26T15:45:34.733Z,6.10
2018-03-26T15:48:02.335Z,6.00
2018-03-26T15:50:29.920Z,5.90
2018-03-26T15:52:58.269Z,6.10
2018-03-26T15:55:25.868Z,6.00
2018-03-26T15:57:53.499Z,6.10
2018-03-26T16:00:21.102Z,6.10
2018-03-26T16:02:54.477Z,6.10
2018-03-26T16:05:22.843Z,6.30
2018-03-26T16:07:50.514Z,6.30
2018-03-26T16:10:18.137Z,6.20
2018-03-26T16:12:45.749Z,6.30
2018-03-26T16:15:14.822Z,6.20
2018-03-26T16:17:42.449Z,6.20
2018-03-26T16:20:10.214Z,6.00
2018-03-26T16:22:37.796Z,6.10
2018-03-26T16:25:06.253Z,6.20
2018-03-26T16:27:33.849Z,6.20
2018-03-26T16:30:01.436Z,6.20
2018-03-26T16:32:29.021Z,6.10
2018-03-26T16:34:56.621Z,6.00
2018-03-26T16:37:24.302Z,6.00
2018-03-26T16:39:51.911Z,6.00
2018-03-26T16:42:25.497Z,6.00
2018-03-26T16:44:53.073Z,5.90
2018-03-26T16:47:20.678Z,5.90
2018-03-26T16:49:48.267Z,6.10
2018-03-26T16:52:16.637Z,6.10
2018-03-26T16:54:44.294Z,6.10
2018-03-26T16:57:11.883Z,6.00
2018-03-26T16:59:39.524Z,6.20
2018-03-26T17:02:07.890Z,6.20
2018-03-26T17:04:35.499Z,6.10
2018-03-26T17:07:03.196Z,6.00
2018-03-26T17:09:30.776Z,5.90
2018-03-26T17:11:58.399Z,5.70
2018-03-26T17:14:25.982Z,5.70
2018-03-26T17:16:54.630Z,5.60
2018-03-26T17:19:22.242Z,5.50
2018-03-26T17:21:49.832Z,5.40
2018-03-26T17:24:18.218Z,5.20
2018-03-26T17:26:46.581Z,5.10
2018-03-26T17:29:14.186Z,5.10
2018-03-26T17:31:41.778Z,5.00
2018-03-26T17:34:09.389Z,4.90
2018-03-26T17:36:37.733Z,4.70
2018-03-26T17:39:06.052Z,4.70
2018-03-26T17:41:33.650Z,4.70
2018-03-26T17:44:01.249Z,4.80
2018-03-26T17:46:28.910Z,4.70
2018-03-26T17:48:56.528Z,4.60
2018-03-26T17:51:24.133Z,4.60
2018-03-26T17:53:51.739Z,4.50
2018-03-26T17:56:19.357Z,4.30
2018-03-26T17:58:46.975Z,4.20
2018-03-26T18:01:14.595Z,4.10
2018-03-26T18:03:43.005Z,4.10
2018-03-26T18:06:10.608Z,4.10
2018-03-26T18:08:38.221Z,4.20
2018-03-26T18:11:05.886Z,3.90
2018-03-26T18:13:33.495Z,3.90
2018-03-26T18:16:01.129Z,3.90
2018-03-26T18:18:28.727Z,3.80
2018-03-26T18:20:56.321Z,3.90
2018-03-26T18:23:23.938Z,3.90
2018-03-26T18:25:51.546Z,3.80
2018-03-26T18:28:19.190Z,3.70
2018-03-26T18:30:47.706Z,3.60
2018-03-26T18:33:15.313Z,3.60
2018-03-26T18:35:42.977Z,3.70
2018-03-26T18:38:10.810Z,3.60
2018-03-26T18:40:38.630Z,3.60
2018-03-26T18:43:06.319Z,3.60
2018-03-26T18:45:34.085Z,3.50
2018-03-26T18:48:02.068Z,3.40
2018-03-26T18:50:29.983Z,3.30
2018-03-26T18:52:57.923Z,3.50
2018-03-26T18:55:26.382Z,3.30
2018-03-26T18:57:54.067Z,3.30
2018-03-26T19:00:22.138Z,3.30
2018-03-26T19:02:50.053Z,3.30
2018-03-26T19:05:18.744Z,3.20
2018-03-26T19:07:47.854Z,3.10
2018-03-26T19:12:49.851Z,3.20
2018-03-26T19:15:17.955Z,3.10
2018-03-26T19:17:45.751Z,3.00
2018-03-26T19:20:14.371Z,2.90
2018-03-26T19:22:41.973Z,2.80
2018-03-26T19:25:09.699Z,2.90
2018-03-26T19:27:37.319Z,2.80
2018-03-26T19:30:04.924Z,2.80
2018-03-26T19:32:32.537Z,2.80
2018-03-26T19:35:00.135Z,2.80
2018-03-26T19:37:28.495Z,2.70
2018-03-26T19:39:56.858Z,2.50
2018-03-26T19:42:24.591Z,2.50
2018-03-26T19:44:52.233Z,2.50
2018-03-26T19:47:19.881Z,2.50
2018-03-26T19:49:47.491Z,2.50
2018-03-26T19:52:15.137Z,2.40
2018-03-26T19:54:42.748Z,2.50
2018-03-26T19:57:10.442Z,2.40
2018-03-26T19:59:38.037Z,2.30
2018-03-26T20:02:05.694Z,2.30
2018-03-26T20:04:33.286Z,2.30
2018-03-26T20:07:00.894Z,2.40
2018-03-26T20:09:28.571Z,2.30
2018-03-26T20:11:56.168Z,2.20
2018-03-26T20:14:23.763Z,2.10
2018-03-26T20:16:52.136Z,2.30
2018-03-26T20:19:20.496Z,2.20
2018-03-26T20:21:48.108Z,2.20
2018-03-26T20:24:15.696Z,2.30
2018-03-26T20:26:43.332Z,2.30
2018-03-26T20:29:10.950Z,2.20
2018-03-26T20:31:38.584Z,2.20
2018-03-26T20:34:06.341Z,2.10
2018-03-26T20:36:33.951Z,2.10
2018-03-26T20:39:02.329Z,1.90
2018-03-26T20:41:30.730Z,1.90
2018-03-26T20:43:58.416Z,1.90
2018-03-26T20:46:26.014Z,1.90
2018-03-26T20:48:53.605Z,1.90
2018-03-26T20:51:21.987Z,1.80
2018-03-26T20:53:50.385Z,1.80
2018-03-26T20:56:17.989Z,1.70
2018-03-26T20:58:45.584Z,1.70
2018-03-26T21:01:13.179Z,1.70
2018-03-26T21:03:40.804Z,1.70
2018-03-26T21:06:09.210Z,1.60
2018-03-26T21:08:36.825Z,1.60
2018-03-26T21:11:04.425Z,1.60
2018-03-26T21:13:32.773Z,1.60
2018-03-26T21:16:00.357Z,1.60
2018-03-26T21:18:28.749Z,1.60
2018-03-26T21:20:56.380Z,1.60
2018-03-26T21:23:23.992Z,1.50
2018-03-26T21:25:51.612Z,1.40
2018-03-26T21:28:19.225Z,1.40
2018-03-26T21:30:46.908Z,1.40
2018-03-26T21:33:14.529Z,1.30
2018-03-26T21:35:42.147Z,1.30
2018-03-26T21:38:09.808Z,1.30
2018-03-26T21:40:37.394Z,1.30
2018-03-26T21:43:05.010Z,1.30
2018-03-26T21:45:32.609Z,1.30
2018-03-26T21:48:00.205Z,1.20
2018-03-26T21:50:27.997Z,1.20
2018-03-26T21:52:55.597Z,1.10
2018-03-26T21:55:24.002Z,1.20
2018-03-26T21:57:52.421Z,1.10
2018-03-26T22:00:20.067Z,1.10
2018-03-26T22:02:47.686Z,1.10
2018-03-26T22:05:15.305Z,1.00
2018-03-26T22:07:42.950Z,1.10
2018-03-26T22:10:10.544Z,1.00
2018-03-26T22:12:38.148Z,1.00
2018-03-26T22:15:05.782Z,1.00
2018-03-26T22:17:33.400Z,1.00
2018-03-26T22:20:01.006Z,1.00
2018-03-26T22:22:28.767Z,0.90
2018-03-26T22:24:56.402Z,1.00
2018-03-26T22:27:24.016Z,0.90
2018-03-26T22:29:52.378Z,0.90
2018-03-26T22:32:20.003Z,0.80
2018-03-26T22:34:47.583Z,0.90
2018-03-26T22:37:15.217Z,0.80
2018-03-26T22:39:42.820Z,0.70
2018-03-26T22:44:50.841Z,0.80
2018-03-26T22:47:18.479Z,0.70
2018-03-26T22:49:46.096Z,0.70
2018-03-26T22:52:14.468Z,0.70
2018-03-26T22:54:42.866Z,0.70
2018-03-26T22:57:10.471Z,0.70
2018-03-26T22:59:38.061Z,0.70
2018-03-26T23:02:05.652Z,0.70
2018-03-26T23:04:33.261Z,0.70
2018-03-26T23:07:00.879Z,0.70
2018-03-26T23:09:28.478Z,0.70
2018-03-26T23:11:56.078Z,0.60
2018-03-26T23:14:24.438Z,0.60
2018-03-26T23:16:52.043Z,0.60
2018-03-26T23:19:19.648Z,0.50
2018-03-26T23:21:47.234Z,0.50
2018-03-26T23:24:14.825Z,0.50
2018-03-26T23:26:42.429Z,0.50
2018-03-26T23:29:10.027Z,0.50
2018-03-26T23:31:37.623Z,0.70
2018-03-26T23:34:05.246Z,0.80
2018-03-26T23:36:32.849Z,0.90
2018-03-26T23:39:00.454Z,0.80
2018-03-26T23:41:28.061Z,0.80
2018-03-26T23:43:55.651Z,0.90
2018-03-26T23:46:23.248Z,0.90
2018-03-26T23:48:50.853Z,0.90
2018-03-26T23:51:18.440Z,0.90
2018-03-26T23:53:46.097Z,0.80
2018-03-26T23:56:13.683Z,0.70
2018-03-26T23:58:41.317Z,0.70
